Time;durP1;ratioP1;P1;durP2;ratioP2;P2;SDS_P1;SDS_P2;PMS_P1;PMS_P2;Temp;Humidity;BMP_temperature;BMP_pressure;BME280_temperature;BME280_humidity;BME280_pressure;Samples;Min_cycle;Max_cycle;Signal;HPM_P1;HPM_P2
2023/09/03 00:00:43;;;;;;;20.20;6.13;;;;;;;18.15;100.00;101401.06;4918249;29;20047;-70
2023/09/03 00:03:47;;;;;;;22.17;5.70;;;;;;;18.06;100.00;101392.84;4916933;29;20123;-70
2023/09/03 00:06:50;;;;;;;16.63;6.10;;;;;;;18.11;100.00;101396.00;4918112;29;20206;-70
2023/09/03 00:09:53;;;;;;;34.38;6.65;;;;;;;18.01;100.00;101394.94;4918079;29;20527;-70
2023/09/03 00:12:56;;;;;;;13.18;6.18;;;;;;;18.00;100.00;101403.84;4906191;29;20047;-70
2023/09/03 00:16:00;;;;;;;22.75;5.13;;;;;;;18.02;100.00;101395.78;4917900;29;20161;-69
2023/09/03 00:19:03;;;;;;;13.43;5.00;;;;;;;17.99;100.00;101404.78;4917997;29;20051;-69
2023/09/03 00:22:07;;;;;;;15.35;5.00;;;;;;;17.96;100.00;101409.44;4918147;29;20115;-69
2023/09/03 00:25:10;;;;;;;12.25;4.63;;;;;;;17.95;100.00;101411.25;4917540;29;20062;-69
2023/09/03 00:28:13;;;;;;;17.40;4.72;;;;;;;17.92;100.00;101400.88;4917595;29;20047;-69
2023/09/03 00:31:17;;;;;;;15.13;5.28;;;;;;;17.95;100.00;101407.75;4917752;29;20574;-69
2023/09/03 00:34:21;;;;;;;15.50;4.65;;;;;;;17.96;100.00;101396.22;4905696;29;20063;-69
2023/09/03 00:37:24;;;;;;;13.23;4.65;;;;;;;17.96;100.00;101397.06;4904863;29;20047;-70
2023/09/03 00:40:28;;;;;;;16.13;4.55;;;;;;;17.93;100.00;101391.13;4917642;29;20091;-69
2023/09/03 00:43:34;;;;;;;33.08;4.80;;;;;;;17.92;100.00;101398.22;4905749;29;20047;-69
2023/09/03 00:46:37;;;;;;;12.15;4.15;;;;;;;17.89;100.00;101394.00;4917267;29;20090;-69
2023/09/03 00:49:42;;;;;;;11.23;4.10;;;;;;;17.92;100.00;101395.59;4904024;29;20051;-69
2023/09/03 00:52:46;;;;;;;27.73;5.72;;;;;;;17.88;100.00;101400.25;4915978;29;20087;-69
2023/09/03 00:55:49;;;;;;;11.70;3.95;;;;;;;17.88;100.00;101402.88;4916964;29;20107;-70
2023/09/03 00:58:53;;;;;;;22.55;4.22;;;;;;;17.85;100.00;101395.16;4917249;29;20070;-69
2023/09/03 01:01:56;;;;;;;22.23;3.63;;;;;;;17.66;100.00;101386.78;4917254;29;20107;-69
2023/09/03 01:05:00;;;;;;;12.10;3.78;;;;;;;17.64;100.00;101373.66;4917391;29;20429;-69
2023/09/03 01:08:03;;;;;;;12.77;3.55;;;;;;;17.69;100.00;101381.28;4917184;29;20051;-69
2023/09/03 01:11:06;;;;;;;11.75;3.13;;;;;;;17.71;100.00;101386.44;4905369;29;20050;-69
2023/09/03 01:14:31;;;;;;;12.25;2.75;;;;;;;17.72;100.00;101394.28;4916204;29;20524;-70
2023/09/03 01:17:48;;;;;;;9.25;2.78;;;;;;;17.66;100.00;101394.69;4897433;29;20574;-69
2023/09/03 01:21:06;;;;;;;13.48;2.70;;;;;;;17.71;100.00;101389.97;4886394;29;20073;-69
2023/09/03 01:24:23;;;;;;;7.65;2.45;;;;;;;17.72;100.00;101396.94;4886045;29;20091;-69
2023/09/03 01:27:41;;;;;;;8.73;2.78;;;;;;;17.69;100.00;101399.78;4897630;29;20175;-70
2023/09/03 01:30:45;;;;;;;12.60;3.58;;;;;;;17.62;100.00;101414.38;4897680;29;20044;-69
2023/09/03 01:33:48;;;;;;;10.70;2.55;;;;;;;17.59;100.00;101411.94;4885870;29;20050;-70
2023/09/03 01:36:52;;;;;;;9.35;2.67;;;;;;;17.61;100.00;101412.66;4897804;29;20115;-70
2023/09/03 01:39:55;;;;;;;6.43;2.38;;;;;;;17.55;100.00;101423.66;4897898;29;20085;-69
2023/09/03 01:42:58;;;;;;;11.63;2.20;;;;;;;17.50;100.00;101431.06;4897574;29;20048;-70
2023/09/03 01:46:37;;;;;;;15.88;3.03;;;;;;;17.50;100.00;101436.34;4886312;29;20135;-70
2023/09/03 01:49:58;;;;;;;7.60;2.60;;;;;;;17.48;100.00;101444.38;4886138;29;20168;-70
2023/09/03 01:53:21;;;;;;;11.10;2.33;;;;;;;17.42;100.00;101461.53;4886127;29;20104;-69
2023/09/03 01:56:26;;;;;;;4.63;2.33;;;;;;;17.41;100.00;101457.16;4885462;29;20051;-70
2023/09/03 01:59:40;;;;;;;5.82;2.00;;;;;;;17.32;100.00;101455.13;4885594;29;20042;-70
2023/09/03 02:02:44;;;;;;;8.23;2.05;;;;;;;17.34;100.00;101458.53;4878557;29;20047;-70
2023/09/03 02:05:49;;;;;;;13.65;3.15;;;;;;;17.34;100.00;101455.88;4897538;29;20051;-70
2023/09/03 02:08:53;;;;;;;7.30;2.35;;;;;;;17.35;100.00;101460.22;4897524;29;20526;-70
2023/09/03 02:11:57;;;;;;;5.53;1.75;;;;;;;17.31;100.00;101468.47;4886073;29;20112;-70
2023/09/03 02:15:01;;;;;;;6.13;2.40;;;;;;;17.27;100.00;101472.25;4898387;29;20049;-69
2023/09/03 02:18:08;;;;;;;9.75;2.35;;;;;;;17.20;100.00;101483.22;4911927;29;20063;-69
2023/09/03 02:21:13;;;;;;;10.85;2.33;;;;;;;17.18;100.00;101482.47;4904786;29;20566;-69
2023/09/03 02:24:16;;;;;;;4.20;2.20;;;;;;;17.19;100.00;101483.31;4901207;29;20095;-69
2023/09/03 02:27:20;;;;;;;12.55;2.33;;;;;;;17.19;100.00;101464.81;4919373;29;20071;-69
2023/09/03 02:30:23;;;;;;;6.38;2.10;;;;;;;17.18;100.00;101457.84;4919848;29;20055;-69
2023/09/03 02:33:27;;;;;;;11.45;2.03;;;;;;;17.13;100.00;101455.50;4908174;29;20103;-69
2023/09/03 02:36:31;;;;;;;3.92;1.50;;;;;;;17.14;100.00;101456.34;4908044;29;20146;-70
2023/09/03 02:39:34;;;;;;;7.30;1.73;;;;;;;17.10;100.00;101444.25;4919802;29;20051;-69
2023/09/03 02:42:38;;;;;;;9.60;1.90;;;;;;;17.02;100.00;101452.69;4907975;29;20046;-69
2023/09/03 02:45:41;;;;;;;8.07;1.95;;;;;;;16.95;100.00;101452.25;4919689;29;20111;-69
2023/09/03 02:48:45;;;;;;;7.93;1.70;;;;;;;16.94;100.00;101449.69;4919163;29;20047;-69
2023/09/03 02:51:48;;;;;;;5.78;1.83;;;;;;;16.91;100.00;101457.81;4906862;29;20104;-70
2023/09/03 02:54:52;;;;;;;4.72;1.67;;;;;;;16.85;100.00;101467.00;4906864;29;20107;-69
2023/09/03 02:57:55;;;;;;;13.23;1.92;;;;;;;16.82;100.00;101455.78;4907000;29;20429;-69
2023/09/03 03:01:04;;;;;;;16.23;3.10;;;;;;;16.89;100.00;101457.91;4919389;29;20520;-69
2023/09/03 03:04:07;;;;;;;13.55;2.42;;;;;;;16.79;100.00;101477.09;4902941;29;20546;-69
2023/09/03 03:07:10;;;;;;;5.30;1.60;;;;;;;16.77;100.00;101479.81;4914900;29;20087;-69
2023/09/03 03:10:14;;;;;;;8.43;1.70;;;;;;;16.83;100.00;101487.38;4906784;29;20047;-69
2023/09/03 03:13:19;;;;;;;10.38;1.63;;;;;;;16.78;100.00;101481.50;4906448;29;20425;-69
2023/09/03 03:16:23;;;;;;;9.82;1.58;;;;;;;16.74;100.00;101477.34;4906201;29;20430;-69
2023/09/03 03:19:28;;;;;;;8.63;2.20;;;;;;;16.75;100.00;101473.78;4907010;29;20502;-69
2023/09/03 03:22:31;;;;;;;9.40;2.20;;;;;;;16.77;100.00;101474.53;4907243;29;20054;-69
2023/09/03 03:25:35;;;;;;;8.27;2.20;;;;;;;16.77;100.00;101479.81;4907075;29;20088;-68
2023/09/03 03:28:38;;;;;;;6.57;2.38;;;;;;;16.72;100.00;101490.66;4918325;29;20047;-68
2023/09/03 03:31:42;;;;;;;12.60;3.25;;;;;;;16.71;100.00;101490.75;4906240;29;20042;-69
2023/09/03 03:34:47;;;;;;;8.30;2.00;;;;;;;16.68;100.00;101496.22;4919075;29;20043;-69
2023/09/03 03:37:51;;;;;;;13.15;2.63;;;;;;;16.66;100.00;101500.75;4906838;29;20127;-68
2023/09/03 03:41:06;;;;;;;7.13;1.73;;;;;;;16.66;100.00;101500.75;4890031;29;20123;-69
2023/09/03 03:44:09;;;;;;;12.40;2.00;;;;;;;16.69;100.00;101493.50;4906621;29;20047;-69
2023/09/03 03:47:12;;;;;;;11.27;2.35;;;;;;;16.67;100.00;101494.53;4918109;29;20050;-68
2023/09/03 03:50:16;;;;;;;5.55;1.60;;;;;;;16.71;100.00;101496.03;4892805;29;20055;-68
2023/09/03 03:53:23;;;;;;;5.65;1.70;;;;;;;16.63;100.00;101501.78;4906840;29;20103;-69
2023/09/03 03:56:28;;;;;;;7.63;2.47;;;;;;;16.68;100.00;101507.63;4906542;29;20116;-69
2023/09/03 03:59:33;;;;;;;4.60;1.88;;;;;;;16.61;100.00;101506.31;4906575;29;20047;-69
2023/09/03 04:02:38;;;;;;;7.00;2.05;;;;;;;16.63;100.00;101503.59;4918353;29;20047;-69
2023/09/03 04:05:41;;;;;;;18.27;2.15;;;;;;;16.62;100.00;101508.00;4918280;29;20541;-68
2023/09/03 04:08:46;;;;;;;7.68;1.85;;;;;;;16.63;100.00;101508.88;4898952;29;20525;-69
2023/09/03 04:11:49;;;;;;;15.75;2.22;;;;;;;16.58;100.00;101505.66;4918024;29;20521;-68
2023/09/03 04:14:53;;;;;;;10.40;2.30;;;;;;;16.47;100.00;101499.25;4899993;29;20540;-70
2023/09/03 04:17:56;;;;;;;6.43;2.22;;;;;;;16.47;100.00;101480.78;4917241;29;20085;-68
2023/09/03 04:21:00;;;;;;;8.25;2.22;;;;;;;16.38;100.00;101478.69;4917956;29;20566;-68
2023/09/03 04:24:06;;;;;;;6.65;1.77;;;;;;;16.40;100.00;101487.38;4906049;29;20051;-68
2023/09/03 04:27:09;;;;;;;7.75;2.10;;;;;;;16.48;100.00;101500.09;4905894;29;20103;-68
2023/09/03 04:30:14;;;;;;;8.10;2.10;;;;;;;16.45;100.00;101495.00;4906092;29;20184;-68
2023/09/03 04:33:17;;;;;;;11.20;2.35;;;;;;;16.40;100.00;101492.66;4906061;29;20406;-68
2023/09/03 04:36:20;;;;;;;8.02;2.00;;;;;;;16.44;100.00;101498.59;4905614;29;20047;-68
2023/09/03 04:39:23;;;;;;;6.43;1.90;;;;;;;16.43;100.00;101502.16;4917610;29;20043;-68
2023/09/03 04:42:27;;;;;;;5.90;3.53;;;;;;;16.41;100.00;101509.34;4903807;29;20108;-68
2023/09/03 04:45:31;;;;;;;8.93;2.08;;;;;;;16.33;100.00;101507.16;4916495;29;20071;-68
2023/09/03 04:48:34;;;;;;;8.38;2.20;;;;;;;16.35;100.00;101510.56;4894485;29;20051;-68
2023/09/03 04:51:38;;;;;;;6.30;2.00;;;;;;;16.36;100.00;101511.41;4917320;29;20139;-68
2023/09/03 04:54:41;;;;;;;5.10;1.63;;;;;;;16.39;100.00;101519.13;4915458;29;20127;-68
2023/09/03 04:57:44;;;;;;;9.00;1.95;;;;;;;16.43;100.00;101518.88;4916120;29;20051;-68
2023/09/03 05:00:48;;;;;;;7.75;1.95;;;;;;;16.42;100.00;101511.88;4896800;29;20058;-68
2023/09/03 05:03:51;;;;;;;6.47;1.80;;;;;;;16.47;100.00;101512.44;4915584;29;20422;-68
2023/09/03 05:06:57;;;;;;;10.82;2.10;;;;;;;16.46;100.00;101520.44;4915303;29;20123;-68
2023/09/03 05:10:01;;;;;;;13.02;1.90;;;;;;;16.45;100.00;101521.41;4903506;29;20063;-68
2023/09/03 05:13:06;;;;;;;7.78;2.15;;;;;;;16.41;100.00;101528.66;4903517;29;20083;-68
2023/09/03 05:16:09;;;;;;;5.93;1.52;;;;;;;16.42;100.00;101533.00;4903308;29;20087;-68
2023/09/03 05:19:14;;;;;;;8.23;2.00;;;;;;;16.47;100.00;101538.84;4903427;29;20067;-68
2023/09/03 05:22:18;;;;;;;8.98;1.85;;;;;;;16.51;100.00;101544.78;4889957;29;20067;-68
2023/09/03 05:25:22;;;;;;;6.80;1.77;;;;;;;16.53;100.00;101556.13;4914852;29;20464;-68
2023/09/03 05:28:25;;;;;;;7.65;2.17;;;;;;;16.40;100.00;101557.78;4903508;29;20070;-67
2023/09/03 05:31:30;;;;;;;6.78;1.88;;;;;;;16.33;100.00;101564.38;4903323;29;20091;-69
2023/09/03 05:34:33;;;;;;;6.07;2.17;;;;;;;16.20;100.00;101564.25;4903440;29;20054;-68
2023/09/03 05:37:37;;;;;;;12.88;3.20;;;;;;;16.20;100.00;101574.81;4903504;29;20055;-71
2023/09/03 05:40:41;;;;;;;6.63;2.92;;;;;;;16.32;100.00;101576.72;4903139;29;20558;-70
2023/09/03 05:43:44;;;;;;;9.18;2.92;;;;;;;16.30;100.00;101572.47;4903220;29;20054;-71
2023/09/03 05:46:48;;;;;;;10.13;3.05;;;;;;;16.37;100.00;101577.31;4915120;29;20098;-70
2023/09/03 05:49:56;;;;;;;5.82;3.15;;;;;;;16.38;100.00;101584.28;4914716;29;20083;-70
2023/09/03 05:53:01;;;;;;;13.35;3.92;;;;;;;16.22;100.00;101588.78;4903445;29;20124;-70
2023/09/03 05:56:06;;;;;;;13.60;4.35;;;;;;;16.37;100.00;101606.34;4903051;29;20124;-70
2023/09/03 05:59:10;;;;;;;9.27;4.22;;;;;;;16.37;100.00;101601.06;4902311;29;20051;-70
2023/09/03 06:02:16;;;;;;;10.27;3.35;;;;;;;16.44;100.00;101604.19;4906527;29;20051;-69
2023/09/03 06:05:21;;;;;;;8.73;3.45;;;;;;;16.48;100.00;101601.25;4918621;29;20442;-69
2023/09/03 06:08:24;;;;;;;7.80;3.70;;;;;;;16.54;100.00;101615.03;4918969;29;20131;-69
2023/09/03 06:11:28;;;;;;;11.38;4.05;;;;;;;16.62;100.00;101623.34;4918595;29;20047;-69
2023/09/03 06:14:31;;;;;;;10.40;3.90;;;;;;;16.66;100.00;101627.50;4918801;29;20370;-70
2023/09/03 06:17:34;;;;;;;8.18;3.80;;;;;;;16.64;100.00;101634.66;4918464;29;20092;-70
2023/09/03 06:20:38;;;;;;;8.73;4.40;;;;;;;16.67;100.00;101626.56;4917654;29;20473;-70
2023/09/03 06:23:41;;;;;;;11.63;4.07;;;;;;;16.71;100.00;101630.72;4918143;29;20521;-70
2023/09/03 06:26:45;;;;;;;14.30;4.88;;;;;;;16.66;100.00;101635.44;4918610;29;20090;-70
2023/09/03 06:29:48;;;;;;;9.82;5.00;;;;;;;16.71;100.00;101639.47;4905644;29;20087;-70
2023/09/03 06:32:52;;;;;;;11.40;4.70;;;;;;;16.85;100.00;101638.69;4918368;29;20437;-69
2023/09/03 06:35:56;;;;;;;12.55;6.25;;;;;;;16.96;100.00;101648.59;4918125;29;20086;-69
2023/09/03 06:38:59;;;;;;;14.10;5.57;;;;;;;16.99;100.00;101652.84;4918219;29;20095;-70
2023/09/03 06:42:03;;;;;;;12.00;5.47;;;;;;;16.96;100.00;101648.59;4918188;29;20050;-70
2023/09/03 06:45:08;;;;;;;10.32;4.80;;;;;;;17.00;100.00;101646.59;4895399;29;20070;-70
2023/09/03 06:48:11;;;;;;;17.48;5.28;;;;;;;17.08;100.00;101647.84;4918018;29;20577;-70
2023/09/03 06:51:15;;;;;;;11.23;5.50;;;;;;;17.15;100.00;101658.88;4917384;29;20139;-69
2023/09/03 06:54:18;;;;;;;8.13;4.53;;;;;;;17.20;100.00;101657.66;4915149;29;20047;-70
2023/09/03 06:57:21;;;;;;;9.48;5.18;;;;;;;17.37;100.00;101664.53;4917633;29;20387;-69
2023/09/03 07:00:25;;;;;;;5.75;4.53;;;;;;;17.55;100.00;101680.16;4917532;29;20049;-69
2023/09/03 07:03:29;;;;;;;7.38;4.50;;;;;;;17.63;100.00;101684.03;4917921;29;20050;-69
2023/09/03 07:06:32;;;;;;;5.43;4.10;;;;;;;17.73;100.00;101688.75;4917891;29;20043;-69
2023/09/03 07:09:36;;;;;;;6.50;4.93;;;;;;;17.76;100.00;101694.69;4905224;29;20063;-69
2023/09/03 07:12:39;;;;;;;7.60;4.35;;;;;;;17.77;99.79;101687.63;4916912;29;20462;-70
2023/09/03 07:15:44;;;;;;;8.95;4.50;;;;;;;17.85;99.79;101696.78;4917597;29;20151;-70
2023/09/03 07:18:47;;;;;;;7.07;4.22;;;;;;;17.91;99.34;101694.69;4916945;29;20050;-70
2023/09/03 07:21:51;;;;;;;8.00;3.58;;;;;;;17.82;98.97;101699.63;4917579;29;20420;-70
2023/09/03 07:24:55;;;;;;;5.68;2.92;;;;;;;17.78;100.00;101702.56;4917345;29;20095;-70
2023/09/03 07:27:59;;;;;;;7.18;3.13;;;;;;;17.93;100.00;101719.25;4905788;29;20051;-70
2023/09/03 07:31:06;;;;;;;4.68;2.75;;;;;;;18.06;99.25;101720.13;4917535;29;20103;-70
2023/09/03 07:34:13;;;;;;;5.15;3.35;;;;;;;18.17;98.82;101720.31;4916912;29;20055;-70
2023/09/03 07:37:17;;;;;;;6.13;2.75;;;;;;;18.24;98.70;101724.25;4916412;29;20133;-69
2023/09/03 07:40:21;;;;;;;9.57;2.97;;;;;;;18.26;97.68;101727.66;4916473;29;20038;-70
2023/09/03 07:43:24;;;;;;;6.72;2.75;;;;;;;18.35;97.30;101716.47;4912421;29;20071;-70
2023/09/03 07:46:27;;;;;;;4.00;2.25;;;;;;;18.33;97.19;101723.63;4914744;29;20063;-70
2023/09/03 07:49:32;;;;;;;4.35;2.47;;;;;;;18.41;97.93;101735.53;4913792;29;20426;-70
2023/09/03 07:52:35;;;;;;;6.88;2.80;;;;;;;18.52;97.69;101738.31;4914861;29;20513;-70
2023/09/03 07:55:40;;;;;;;5.13;2.40;;;;;;;18.54;97.26;101747.88;4915462;29;20127;-71
2023/09/03 07:58:45;;;;;;;4.65;2.97;;;;;;;18.58;96.93;101735.25;4913945;29;20131;-70
2023/09/03 08:01:51;;;;;;;4.85;2.38;;;;;;;18.62;96.82;101738.56;4916950;29;20414;-70
2023/09/03 08:04:54;;;;;;;5.35;2.38;;;;;;;18.65;96.74;101733.91;4917057;29;20072;-70
2023/09/03 08:07:57;;;;;;;3.08;2.13;;;;;;;18.55;97.22;101748.72;4916760;29;20063;-70
2023/09/03 08:11:01;;;;;;;3.35;2.28;;;;;;;18.58;97.58;101749.34;4917033;29;20111;-70
2023/09/03 08:14:05;;;;;;;3.75;2.35;;;;;;;18.54;97.91;101749.66;4916659;29;20082;-71
2023/09/03 08:17:09;;;;;;;3.45;2.13;;;;;;;18.65;97.13;101749.78;4916068;29;20051;-71
2023/09/03 08:20:13;;;;;;;2.70;2.25;;;;;;;18.66;96.79;101746.19;4916704;29;20558;-72
2023/09/03 08:23:18;;;;;;;3.75;2.15;;;;;;;18.79;96.42;101747.13;4915726;29;20066;-71
2023/09/03 08:26:22;;;;;;;3.00;2.13;;;;;;;18.87;95.61;101756.34;4916470;29;20140;-72
2023/09/03 08:29:28;;;;;;;5.03;2.50;;;;;;;18.99;94.81;101752.84;4916410;29;20051;-72
2023/09/03 08:32:31;;;;;;;4.47;3.47;;;;;;;18.55;95.18;101769.91;4904597;29;20136;-72
2023/09/03 08:35:36;;;;;;;6.38;3.58;;;;;;;18.66;94.55;101772.66;4916507;29;20102;-71
2023/09/03 08:38:39;;;;;;;4.78;3.90;;;;;;;18.84;93.67;101770.63;4916319;29;20458;-71
2023/09/03 08:41:43;;;;;;;7.15;4.60;;;;;;;19.03;92.86;101763.13;4916304;29;20067;-71
2023/09/03 08:44:51;;;;;;;4.53;3.70;;;;;;;19.08;91.88;101762.84;4916225;29;20086;-71
2023/09/03 08:47:55;;;;;;;7.18;3.33;;;;;;;19.02;93.45;101753.50;4915904;29;20050;-71
2023/09/03 08:51:02;;;;;;;5.43;4.13;;;;;;;19.15;92.06;101752.66;4899043;29;20047;-71
2023/09/03 08:54:08;;;;;;;6.00;3.60;;;;;;;19.27;90.92;101754.44;4916221;29;20046;-70
2023/09/03 08:57:11;;;;;;;5.82;3.90;;;;;;;19.19;90.29;101765.59;4916225;29;20087;-71
2023/09/03 09:00:16;;;;;;;4.90;3.92;;;;;;;19.28;90.29;101759.66;4916205;29;20102;-71
2023/09/03 09:03:23;;;;;;;6.43;5.50;;;;;;;19.29;90.17;101757.84;4911460;29;20265;-74
2023/09/03 09:06:35;;;;;;;5.65;4.53;;;;;;;19.19;90.19;101760.28;4915025;29;20090;-71
2023/09/03 09:09:39;;;;;;;5.15;4.60;;;;;;;19.32;90.83;101747.03;4915295;29;20043;-71
2023/09/03 09:13:06;;;;;;;7.78;4.20;;;;;;;19.50;90.21;101748.38;4911598;29;20158;-69
2023/09/03 09:16:10;;;;;;;4.88;4.30;;;;;;;19.64;89.04;101741.28;4913901;29;20115;-70
2023/09/03 09:19:17;;;;;;;4.72;4.25;;;;;;;19.61;87.87;101744.97;4902310;29;20039;-70
2023/09/03 09:22:21;;;;;;;6.20;4.18;;;;;;;19.64;88.91;101749.25;4911367;29;20123;-70
2023/09/03 09:25:25;;;;;;;5.30;4.38;;;;;;;19.72;88.55;101747.75;4913054;29;20047;-70
2023/09/03 09:28:29;;;;;;;6.00;4.97;;;;;;;19.70;88.56;101757.63;4902207;29;20051;-71
2023/09/03 09:31:35;;;;;;;15.02;5.22;;;;;;;19.77;88.39;101751.88;4914927;29;20043;-71
2023/09/03 09:34:42;;;;;;;9.35;4.82;;;;;;;19.70;88.47;101746.16;4914115;29;20055;-71
2023/09/03 09:37:49;;;;;;;6.43;5.20;;;;;;;19.79;87.88;101749.97;4912976;29;20490;-72
2023/09/03 09:40:53;;;;;;;6.72;5.93;;;;;;;19.85;86.93;101747.72;4913507;29;20079;-73
2023/09/03 09:43:59;;;;;;;5.72;5.22;;;;;;;19.67;86.96;101747.22;4913746;29;20114;-71
2023/09/03 09:47:22;;;;;;;7.13;6.18;;;;;;;19.73;87.69;101748.59;4914382;29;20066;-71
2023/09/03 09:50:34;;;;;;;7.57;5.30;;;;;;;19.76;88.55;101750.19;4912004;29;20083;-71
2023/09/03 09:53:38;;;;;;;7.32;6.10;;;;;;;19.66;90.91;101750.84;4913205;29;20170;-71
2023/09/03 09:56:42;;;;;;;7.03;5.88;;;;;;;19.78;88.38;101748.25;4914355;29;20043;-71
2023/09/03 09:59:52;;;;;;;6.13;5.53;;;;;;;19.73;87.59;101744.13;4907206;29;20257;-70
2023/09/03 10:02:56;;;;;;;7.28;5.72;;;;;;;19.91;88.22;101741.09;4914519;29;20506;-69
2023/09/03 10:06:00;;;;;;;6.90;5.57;;;;;;;20.00;87.59;101740.44;4913942;29;20107;-70
2023/09/03 10:09:08;;;;;;;7.35;5.80;;;;;;;20.08;86.90;101738.06;4912439;29;20152;-71
2023/09/03 10:12:12;;;;;;;9.60;5.75;;;;;;;20.17;86.32;101740.06;4912444;29;20047;-72
2023/09/03 10:15:16;;;;;;;7.97;5.85;;;;;;;20.39;85.02;101746.44;4913052;29;20072;-72
2023/09/03 10:18:20;;;;;;;9.30;6.10;;;;;;;20.43;84.79;101747.91;4910337;29;20047;-72
2023/09/03 10:21:26;;;;;;;5.85;5.13;;;;;;;20.52;84.95;101752.56;4913766;29;20095;-71
2023/09/03 10:24:30;;;;;;;6.78;5.80;;;;;;;20.62;84.32;101737.63;4912600;29;20122;-72
2023/09/03 10:27:43;;;;;;;7.93;6.28;;;;;;;20.74;83.31;101730.53;4912951;29;20251;-72
2023/09/03 10:30:51;;;;;;;8.05;5.65;;;;;;;20.79;83.78;101743.47;4901252;29;20510;-72
2023/09/03 10:33:55;;;;;;;9.30;6.18;;;;;;;20.75;81.93;101745.50;4913622;29;20144;-71
2023/09/03 10:37:06;;;;;;;8.55;6.43;;;;;;;20.75;81.29;101745.50;4911930;29;20035;-72
2023/09/03 10:40:36;;;;;;;8.77;6.53;;;;;;;20.86;81.08;101742.88;4912833;29;21057;-74
2023/09/03 10:43:39;;;;;;;9.32;7.32;;;;;;;21.00;79.79;101741.84;4913021;29;20308;-71
2023/09/03 10:46:59;;;;;;;7.13;6.30;;;;;;;20.98;79.76;101738.44;4913160;29;20107;-72
2023/09/03 10:50:05;;;;;;;9.25;6.25;;;;;;;21.16;80.11;101740.66;4911471;29;20047;-72
2023/09/03 10:53:36;;;;;;;7.40;6.22;;;;;;;21.25;79.25;101745.22;4919143;29;20043;-72
2023/09/03 10:57:05;;;;;;;8.13;5.85;;;;;;;21.16;77.84;101735.34;4918793;29;20047;-72
2023/09/03 11:00:10;;;;;;;7.72;5.80;;;;;;;21.01;75.68;101738.19;4917631;29;20071;-71
2023/09/03 11:03:15;;;;;;;6.90;5.28;;;;;;;21.01;76.27;101732.03;4917085;29;20468;-70
2023/09/03 11:06:21;;;;;;;12.05;5.85;;;;;;;21.25;76.69;101718.63;4916019;29;20082;-71
2023/09/03 11:09:24;;;;;;;6.15;5.30;;;;;;;21.31;76.48;101716.34;4916420;29;20079;-70
2023/09/03 11:12:28;;;;;;;7.55;5.13;;;;;;;21.33;73.60;101716.22;4916749;29;20055;-72
2023/09/03 11:15:33;;;;;;;6.88;4.68;;;;;;;21.36;75.05;101722.19;4914564;29;20055;-71
2023/09/03 11:18:38;;;;;;;6.97;5.55;;;;;;;21.56;74.52;101725.91;4904063;29;20578;-70
2023/09/03 11:21:42;;;;;;;6.57;5.10;;;;;;;21.61;73.18;101724.72;4916386;29;20149;-71
2023/09/03 11:24:49;;;;;;;6.88;5.13;;;;;;;21.70;73.30;101716.84;4916885;29;20086;-72
2023/09/03 11:27:52;;;;;;;5.90;4.57;;;;;;;21.86;73.10;101720.91;4914733;29;20099;-71
2023/09/03 11:31:00;;;;;;;6.25;5.03;;;;;;;21.96;71.06;101713.88;4914880;29;20039;-71
2023/09/03 11:34:17;;;;;;;5.35;4.43;;;;;;;21.86;70.62;101708.47;4916089;29;20047;-71
2023/09/03 11:37:23;;;;;;;5.32;4.55;;;;;;;21.97;71.37;101711.06;4904347;29;20103;-71
2023/09/03 11:40:30;;;;;;;6.22;4.93;;;;;;;22.03;69.81;101712.41;4916875;29;20136;-71
2023/09/03 11:43:37;;;;;;;5.75;5.10;;;;;;;21.96;69.78;101704.06;4902575;29;20043;-71
2023/09/03 11:46:58;;;;;;;8.07;4.38;;;;;;;22.19;70.53;101715.53;4898270;29;20510;-69
2023/09/03 11:50:15;;;;;;;4.82;4.20;;;;;;;22.23;69.11;101705.44;4914657;29;20062;-70
2023/09/03 11:53:19;;;;;;;6.15;4.30;;;;;;;22.28;70.60;101711.25;4914327;29;20472;-70
2023/09/03 11:56:25;;;;;;;4.85;4.35;;;;;;;22.25;69.91;101708.84;4903173;29;20051;-70
2023/09/03 11:59:28;;;;;;;4.43;3.85;;;;;;;22.37;69.04;101701.66;4915366;29;20055;-71
2023/09/03 12:02:33;;;;;;;4.80;4.20;;;;;;;22.55;68.69;101692.09;4915958;29;20099;-74
2023/09/03 12:05:37;;;;;;;4.95;3.97;;;;;;;22.76;68.28;101689.44;4914379;29;20051;-70
2023/09/03 12:08:41;;;;;;;7.53;4.43;;;;;;;22.87;67.17;101684.00;4903057;29;20050;-71
2023/09/03 12:11:47;;;;;;;4.95;4.45;;;;;;;22.91;66.08;101690.78;4915589;29;20051;-70
2023/09/03 12:14:50;;;;;;;4.35;3.72;;;;;;;23.08;65.53;101686.69;4916183;29;20051;-70
2023/09/03 12:18:09;;;;;;;4.95;3.95;;;;;;;23.09;66.39;101688.38;4913771;29;20039;-70
2023/09/03 12:21:12;;;;;;;4.32;3.92;;;;;;;23.21;64.80;101697.13;4916244;29;20135;-70
2023/09/03 12:24:16;;;;;;;4.88;4.38;;;;;;;23.37;63.30;101702.81;4898190;29;20093;-70
2023/09/03 12:27:19;;;;;;;6.10;3.92;;;;;;;23.66;63.44;101705.56;4913954;29;20096;-70
2023/09/03 12:30:23;;;;;;;4.75;3.72;;;;;;;23.87;61.92;101702.00;4914656;29;20047;-71
2023/09/03 12:33:43;;;;;;;4.75;3.80;;;;;;;24.15;61.24;101694.97;4914922;29;20058;-71
2023/09/03 12:36:57;;;;;;;5.47;4.05;;;;;;;24.62;59.44;101691.63;4903861;29;20051;-70
2023/09/03 12:40:03;;;;;;;7.38;4.03;;;;;;;24.67;59.41;101689.38;4914788;29;20035;-70
2023/09/03 12:43:07;;;;;;;4.05;3.33;;;;;;;25.08;57.22;101680.09;4915046;29;20082;-70
2023/09/03 12:46:11;;;;;;;5.50;4.18;;;;;;;25.51;56.20;101673.28;4915181;29;20047;-70
2023/09/03 12:49:14;;;;;;;5.35;3.45;;;;;;;25.67;54.87;101668.09;4912500;29;20047;-70
2023/09/03 12:52:17;;;;;;;4.00;3.53;;;;;;;25.84;55.59;101669.13;4913473;29;20062;-72
2023/09/03 12:55:23;;;;;;;5.80;3.70;;;;;;;26.01;53.72;101667.47;4913560;29;20445;-70
2023/09/03 12:58:53;;;;;;;7.50;3.60;;;;;;;25.78;53.55;101666.19;4914925;29;20098;-71
2023/09/03 13:02:01;;;;;;;4.18;3.78;;;;;;;26.33;52.87;101666.91;4913091;29;20039;-71
2023/09/03 13:05:09;;;;;;;5.05;3.92;;;;;;;26.61;51.53;101662.28;4915334;29;20087;-71
2023/09/03 13:08:13;;;;;;;4.13;3.13;;;;;;;26.66;50.00;101656.44;4913984;29;20107;-71
2023/09/03 13:11:18;;;;;;;4.32;3.22;;;;;;;26.31;51.13;101657.34;4910351;29;20338;-72
2023/09/03 13:14:21;;;;;;;4.78;3.30;;;;;;;26.09;51.75;101664.84;4911628;29;20461;-70
2023/09/03 13:17:28;;;;;;;3.60;2.95;;;;;;;26.37;51.60;101656.72;4911680;29;20131;-69
2023/09/03 13:20:32;;;;;;;3.40;2.90;;;;;;;27.08;49.29;101655.66;4912531;29;20055;-65
2023/09/03 13:23:35;;;;;;;6.53;2.92;;;;;;;27.22;50.88;101656.91;4914990;29;20043;-65
2023/09/03 13:26:39;;;;;;;6.63;3.30;;;;;;;27.44;50.94;101653.66;4914937;29;20067;-67
2023/09/03 13:29:42;;;;;;;3.65;3.05;;;;;;;27.41;49.12;101662.03;4914641;29;20055;-64
2023/09/03 13:32:46;;;;;;;6.03;3.15;;;;;;;27.59;48.97;101659.22;4912238;29;20070;-70
2023/09/03 13:35:53;;;;;;;5.97;3.15;;;;;;;27.48;46.22;101662.22;4913055;29;20046;-71
2023/09/03 13:38:58;;;;;;;7.07;3.30;;;;;;;28.21;45.51;101648.09;4914303;29;20478;-70
2023/09/03 13:42:02;;;;;;;5.00;2.55;;;;;;;28.34;45.58;101658.34;4914510;29;20524;-69
2023/09/03 13:45:06;;;;;;;4.10;3.45;;;;;;;28.30;46.02;101663.19;4912344;29;20038;-69
2023/09/03 13:48:10;;;;;;;6.57;2.97;;;;;;;29.01;44.39;101656.22;4913220;29;20454;-70
2023/09/03 13:51:15;;;;;;;4.60;3.30;;;;;;;29.17;42.77;101658.84;4913465;29;20550;-69
2023/09/03 13:54:18;;;;;;;3.72;2.78;;;;;;;28.66;43.24;101670.94;4913849;29;20055;-70
2023/09/03 13:57:22;;;;;;;4.88;3.00;;;;;;;27.85;44.20;101677.09;4914176;29;20079;-70
2023/09/03 14:00:26;;;;;;;6.07;2.92;;;;;;;27.71;46.08;101675.88;4914651;29;20039;-70
2023/09/03 14:03:29;;;;;;;7.28;2.90;;;;;;;28.43;45.07;101677.03;4901264;29;20175;-70
2023/09/03 14:06:34;;;;;;;3.30;2.58;;;;;;;29.17;44.15;101666.09;4913400;29;20043;-70
2023/09/03 14:09:37;;;;;;;3.30;2.50;;;;;;;29.36;42.79;101662.97;4913963;29;20043;-69
2023/09/03 14:12:41;;;;;;;3.60;2.80;;;;;;;28.51;43.69;101655.47;4914287;29;20119;-70
2023/09/03 14:15:44;;;;;;;3.25;2.50;;;;;;;28.29;44.61;101656.97;4900061;29;20107;-70